Time;durP1;ratioP1;P1;durP2;ratioP2;P2;SDS_P1;SDS_P2;PMS_P1;PMS_P2;Temp;Humidity;BMP_temperature;BMP_pressure;BME280_temperature;BME280_humidity;BME280_pressure;Samples;Min_cycle;Max_cycle;Signal;HPM_P1;HPM_P2
2022/07/29 00:01:52;;;;;;;0.30;0.13;;;23.40;58.80;;;;;;4949384;28;20112;-45
2022/07/29 00:04:18;;;;;;;0.10;0.10;;;23.40;58.70;;;;;;4943669;28;20395;-46
2022/07/29 00:06:44;;;;;;;0.20;0.20;;;23.40;58.90;;;;;;4943193;28;20051;-46
2022/07/29 00:09:09;;;;;;;0.20;0.20;;;23.40;58.90;;;;;;4947215;28;20035;-45
2022/07/29 00:11:35;;;;;;;0.20;0.20;;;23.40;58.80;;;;;;4945733;28;20059;-45
2022/07/29 00:14:00;;;;;;;0.20;0.20;;;23.40;59.00;;;;;;4949983;28;20085;-44
2022/07/29 00:16:26;;;;;;;0.10;0.10;;;23.40;59.00;;;;;;4947276;28;20059;-45
2022/07/29 00:18:51;;;;;;;0.20;0.20;;;23.30;58.90;;;;;;4948245;28;20043;-44
2022/07/29 00:21:17;;;;;;;0.20;0.20;;;23.40;59.60;;;;;;4947505;28;20058;-40
2022/07/29 00:23:42;;;;;;;0.10;0.10;;;23.30;58.90;;;;;;4941857;28;20048;-47
2022/07/29 00:26:08;;;;;;;0.10;0.10;;;23.30;58.90;;;;;;4947488;28;20047;-48
2022/07/29 00:28:34;;;;;;;0.20;0.20;;;23.30;59.50;;;;;;4950781;28;20076;-45
2022/07/29 00:30:59;;;;;;;0.20;0.20;;;23.30;59.40;;;;;;4942746;28;20055;-46
2022/07/29 00:33:25;;;;;;;0.20;0.10;;;23.30;58.90;;;;;;4943937;28;20546;-45
2022/07/29 00:35:50;;;;;;;0.20;0.20;;;23.30;58.90;;;;;;4947229;28;20539;-46
2022/07/29 00:38:18;;;;;;;0.10;0.10;;;23.30;58.90;;;;;;4948059;28;20089;-45
2022/07/29 00:40:43;;;;;;;0.20;0.10;;;23.30;58.90;;;;;;4950272;28;20047;-45
2022/07/29 00:43:09;;;;;;;0.15;0.10;;;23.30;59.00;;;;;;4948792;28;20419;-45
2022/07/29 00:45:35;;;;;;;0.20;0.20;;;23.30;59.00;;;;;;4946249;28;20097;-46
2022/07/29 00:48:01;;;;;;;0.10;0.10;;;23.30;58.90;;;;;;4948877;28;20043;-45
2022/07/29 00:50:26;;;;;;;0.30;0.30;;;23.30;59.00;;;;;;4949412;28;20119;-45
2022/07/29 00:52:52;;;;;;;0.15;0.13;;;23.30;58.90;;;;;;4946857;29;20391;-45
2022/07/29 00:55:18;;;;;;;0.68;0.30;;;23.30;59.00;;;;;;4939359;28;20093;-37
2022/07/29 00:57:44;;;;;;;0.30;0.30;;;23.30;58.90;;;;;;4944199;28;20045;-45
2022/07/29 01:00:12;;;;;;;0.17;0.17;;;23.30;59.00;;;;;;4946711;28;20039;-47
2022/07/29 01:02:38;;;;;;;0.20;0.20;;;23.30;58.90;;;;;;4943436;28;20386;-45
2022/07/29 01:05:04;;;;;;;0.20;0.20;;;23.30;58.90;;;;;;4947557;28;20429;-45
2022/07/29 01:07:30;;;;;;;0.10;0.10;;;23.30;58.90;;;;;;4945226;28;20044;-47
2022/07/29 01:09:55;;;;;;;0.10;0.10;;;23.30;59.00;;;;;;4946520;28;20043;-48
2022/07/29 01:12:28;;;;;;;0.10;0.10;;;23.30;58.90;;;;;;4945755;28;20458;-46
2022/07/29 01:14:54;;;;;;;0.20;0.20;;;23.30;58.90;;;;;;4945158;28;20418;-46
2022/07/29 01:17:25;;;;;;;0.20;0.20;;;23.30;59.00;;;;;;4943859;28;20054;-44
2022/07/29 01:20:32;;;;;;;0.35;0.20;;;23.30;59.10;;;;;;4941665;28;20058;-48
2022/07/29 01:23:06;;;;;;;0.10;0.10;;;23.30;58.90;;;;;;5019474;28;20029;-45
2022/07/29 01:25:41;;;;;;;0.20;0.20;;;23.30;59.00;;;;;;5023560;28;20140;-45
2022/07/29 01:28:36;;;;;;;0.30;0.22;;;23.20;58.90;;;;;;5020316;28;20045;-45
2022/07/29 01:31:02;;;;;;;0.10;0.10;;;23.30;59.00;;;;;;5000938;28;20061;-45
2022/07/29 01:36:15;;;;;;;0.10;0.10;;;23.20;58.90;;;;;;5010658;28;20072;-45
2022/07/29 01:38:43;;;;;;;0.20;0.20;;;23.30;58.90;;;;;;4992089;28;20088;-45
2022/07/29 01:41:11;;;;;;;0.10;0.10;;;23.20;58.90;;;;;;5006260;28;20240;-44
2022/07/29 01:43:43;;;;;;;0.40;0.10;;;23.30;58.90;;;;;;4986758;28;20042;-45
2022/07/29 01:46:11;;;;;;;0.20;0.20;;;23.30;59.00;;;;;;5020662;28;20056;-45
2022/07/29 01:48:45;;;;;;;0.15;0.15;;;23.20;58.90;;;;;;5004190;28;20096;-45
2022/07/29 01:51:17;;;;;;;0.20;0.20;;;23.20;58.90;;;;;;4993980;28;20045;-45
2022/07/29 01:54:02;;;;;;;0.10;0.10;;;23.30;59.00;;;;;;5002882;28;20047;-44
2022/07/29 01:56:30;;;;;;;0.10;0.10;;;23.20;58.90;;;;;;5019380;28;20432;-46
2022/07/29 01:58:56;;;;;;;0.20;0.20;;;23.20;59.00;;;;;;4983468;28;20435;-45
2022/07/29 02:01:21;;;;;;;0.22;0.22;;;23.20;59.00;;;;;;4944853;28;20062;-48
2022/07/29 02:03:47;;;;;;;0.30;0.28;;;23.20;58.90;;;;;;4945036;28;20088;-45
2022/07/29 02:06:13;;;;;;;0.20;0.20;;;23.20;58.90;;;;;;4944719;28;20077;-49
2022/07/29 02:08:39;;;;;;;0.20;0.20;;;23.20;59.00;;;;;;4943215;28;20065;-48
2022/07/29 02:11:04;;;;;;;0.20;0.20;;;23.20;59.10;;;;;;4926379;28;20047;-45
2022/07/29 02:13:30;;;;;;;0.20;0.20;;;23.20;58.90;;;;;;4946586;28;20050;-48
2022/07/29 02:15:56;;;;;;;0.30;0.10;;;23.20;59.10;;;;;;4945273;28;20074;-46
2022/07/29 02:18:22;;;;;;;0.20;0.20;;;23.30;59.00;;;;;;4942564;28;20113;-46
2022/07/29 02:20:49;;;;;;;0.10;0.10;;;23.20;58.80;;;;;;4943355;28;20066;-45
2022/07/29 02:23:17;;;;;;;0.17;0.10;;;23.30;58.90;;;;;;4924960;28;20138;-45
2022/07/29 02:25:44;;;;;;;0.20;0.20;;;23.30;58.90;;;;;;4986253;28;20051;-45
2022/07/29 02:28:10;;;;;;;0.20;0.20;;;23.20;58.90;;;;;;4999413;28;20451;-51
2022/07/29 02:30:37;;;;;;;0.20;0.20;;;23.30;58.90;;;;;;5018387;28;20495;-45
2022/07/29 02:33:03;;;;;;;0.30;0.20;;;23.20;58.90;;;;;;5031980;28;20687;-46
2022/07/29 02:35:28;;;;;;;0.10;0.10;;;23.20;58.90;;;;;;5029147;28;20041;-46
2022/07/29 02:40:38;;;;;;;;;;;23.20;58.90;;;;;;5033168;28;20427;-45
2022/07/29 02:43:05;;;;;;;0.20;0.20;;;23.20;58.90;;;;;;5026482;28;20387;-49
2022/07/29 02:45:31;;;;;;;0.20;0.10;;;23.20;58.90;;;;;;4978374;28;20328;-46
2022/07/29 02:47:56;;;;;;;0.20;0.20;;;23.20;58.90;;;;;;5006785;28;20045;-47
2022/07/29 02:50:32;;;;;;;0.10;0.10;;;23.20;58.90;;;;;;5018539;28;20048;-50
2022/07/29 02:53:05;;;;;;;0.13;0.13;;;23.20;58.90;;;;;;5011715;28;20048;-47
2022/07/29 02:55:58;;;;;;;0.10;0.10;;;23.20;58.80;;;;;;4984916;28;20060;-47
2022/07/29 02:58:29;;;;;;;0.10;0.10;;;23.20;58.90;;;;;;4982624;28;20482;-46
2022/07/29 03:00:59;;;;;;;0.17;0.17;;;23.20;58.90;;;;;;4939840;28;20067;-46
2022/07/29 03:03:27;;;;;;;0.10;0.10;;;23.20;58.90;;;;;;4922526;29;20051;-45
2022/07/29 03:05:54;;;;;;;0.03;0.03;;;23.20;58.90;;;;;;4979043;28;20041;-53
2022/07/29 03:08:20;;;;;;;0.20;0.17;;;23.20;59.00;;;;;;5023831;28;20037;-48
2022/07/29 03:10:46;;;;;;;0.20;0.20;;;23.20;58.90;;;;;;5007039;28;20420;-46
2022/07/29 03:13:12;;;;;;;0.20;0.20;;;23.10;58.80;;;;;;5024307;28;20049;-45
2022/07/29 03:15:38;;;;;;;0.20;0.20;;;23.20;58.90;;;;;;4967146;28;20135;-46
2022/07/29 03:18:04;;;;;;;0.20;0.20;;;23.20;59.00;;;;;;4987687;28;20626;-49
2022/07/29 03:20:29;;;;;;;0.10;0.10;;;23.20;58.90;;;;;;5024257;28;20051;-45
2022/07/29 03:22:55;;;;;;;0.03;0.03;;;23.20;58.80;;;;;;5002999;28;20037;-47
2022/07/29 03:25:20;;;;;;;0.20;0.20;;;23.20;58.80;;;;;;5047185;28;20179;-51
2022/07/29 03:27:46;;;;;;;0.30;0.30;;;23.20;58.80;;;;;;5003000;28;20523;-47
2022/07/29 03:30:12;;;;;;;0.20;0.20;;;23.20;58.90;;;;;;5043347;28;20070;-45
2022/07/29 03:32:38;;;;;;;0.20;0.20;;;23.10;58.80;;;;;;5041553;28;20045;-47
2022/07/29 03:35:04;;;;;;;0.10;0.10;;;23.20;58.90;;;;;;5031190;28;20049;-46
2022/07/29 03:37:30;;;;;;;1.38;0.10;;;23.10;58.70;;;;;;5045506;28;20041;-50
2022/07/29 03:39:59;;;;;;;0.17;0.17;;;23.10;58.80;;;;;;5042323;28;20045;-45
2022/07/29 03:42:31;;;;;;;0.73;0.20;;;23.20;58.90;;;;;;5042722;28;20047;-46
2022/07/29 03:44:56;;;;;;;0.22;0.22;;;23.10;58.70;;;;;;5028787;28;20049;-46
2022/07/29 03:47:23;;;;;;;0.20;0.10;;;23.20;58.90;;;;;;5027707;28;20293;-45
2022/07/29 03:49:50;;;;;;;0.15;0.10;;;23.20;58.80;;;;;;4944795;28;20456;-52
2022/07/29 03:52:15;;;;;;;1.30;0.10;;;23.10;58.70;;;;;;4943402;28;20047;-45
2022/07/29 03:54:41;;;;;;;0.10;0.10;;;23.20;58.80;;;;;;4942658;28;20113;-48
2022/07/29 03:57:07;;;;;;;0.10;0.10;;;23.10;58.70;;;;;;4942748;28;20043;-47
2022/07/29 03:59:33;;;;;;;0.15;0.15;;;23.20;58.90;;;;;;4943077;28;20113;-45
2022/07/29 04:02:00;;;;;;;1.35;0.30;;;23.10;58.70;;;;;;4959358;28;20285;-50
2022/07/29 04:04:25;;;;;;;0.10;0.10;;;23.20;58.80;;;;;;4944207;28;20097;-45
2022/07/29 04:06:51;;;;;;;0.10;0.10;;;23.10;58.70;;;;;;4941909;28;20044;-46
2022/07/29 04:09:16;;;;;;;0.10;0.10;;;23.10;58.70;;;;;;4935849;28;20109;-46
2022/07/29 04:11:42;;;;;;;0.13;0.13;;;23.20;58.70;;;;;;4938568;28;20079;-46
2022/07/29 04:14:08;;;;;;;0.10;0.10;;;23.10;58.70;;;;;;4940250;28;20044;-45
2022/07/29 04:16:33;;;;;;;0.20;0.20;;;23.10;58.70;;;;;;4946116;28;20047;-51
2022/07/29 04:18:59;;;;;;;0.20;0.20;;;23.10;58.70;;;;;;4945827;28;20051;-47
2022/07/29 04:21:25;;;;;;;0.22;0.22;;;23.20;58.80;;;;;;4943321;28;20134;-46
2022/07/29 04:23:50;;;;;;;0.20;0.10;;;23.10;58.60;;;;;;4944734;28;20088;-45
2022/07/29 04:26:19;;;;;;;0.10;0.10;;;23.10;58.70;;;;;;4940992;28;20506;-45
2022/07/29 04:28:44;;;;;;;0.40;0.20;;;23.10;58.70;;;;;;4941185;28;20054;-45
2022/07/29 04:31:11;;;;;;;0.10;0.10;;;23.10;58.80;;;;;;4946034;28;20040;-47
2022/07/29 04:33:36;;;;;;;0.20;0.20;;;23.10;58.80;;;;;;4941894;28;20059;-49
2022/07/29 04:36:02;;;;;;;0.20;0.20;;;23.10;58.80;;;;;;4946670;28;20051;-45
2022/07/29 04:38:27;;;;;;;0.20;0.20;;;23.10;58.80;;;;;;4947849;28;20127;-44
2022/07/29 04:40:53;;;;;;;0.20;0.20;;;23.10;58.80;;;;;;4943830;28;20051;-45
2022/07/29 04:43:18;;;;;;;0.10;0.10;;;23.10;58.70;;;;;;4941951;28;20132;-45
2022/07/29 04:45:44;;;;;;;0.10;0.10;;;23.10;58.70;;;;;;4945777;28;20134;-45
2022/07/29 04:48:09;;;;;;;0.20;0.20;;;23.10;58.70;;;;;;4938612;28;20481;-45
2022/07/29 04:50:38;;;;;;;0.10;0.10;;;23.10;58.70;;;;;;4942114;28;20066;-46
2022/07/29 04:53:03;;;;;;;0.20;0.20;;;23.10;58.60;;;;;;4948894;28;20051;-45
2022/07/29 04:55:29;;;;;;;0.20;0.20;;;23.10;58.80;;;;;;4943183;28;20109;-44
2022/07/29 04:57:54;;;;;;;0.20;0.20;;;23.10;58.70;;;;;;4943662;28;20134;-45
2022/07/29 05:00:20;;;;;;;0.15;0.15;;;23.10;58.80;;;;;;4945561;28;20117;-47
2022/07/29 05:02:45;;;;;;;0.20;0.20;;;23.10;58.70;;;;;;4946995;28;20504;-46
2022/07/29 05:05:11;;;;;;;0.13;0.13;;;23.10;58.80;;;;;;4946798;28;20606;-47
2022/07/29 05:07:37;;;;;;;0.00;0.00;;;23.10;58.70;;;;;;4942047;28;20036;-45
2022/07/29 05:10:03;;;;;;;0.40;0.20;;;23.10;58.80;;;;;;4947008;28;20097;-46
2022/07/29 05:12:28;;;;;;;0.10;0.10;;;23.10;58.70;;;;;;4938404;28;20743;-33
2022/07/29 05:14:54;;;;;;;0.10;0.10;;;23.10;58.70;;;;;;4941561;28;20052;-50
2022/07/29 05:17:20;;;;;;;0.20;0.20;;;23.10;58.80;;;;;;4935502;28;20040;-45
2022/07/29 05:19:45;;;;;;;0.30;0.30;;;23.10;59.10;;;;;;4941004;28;20047;-46
2022/07/29 05:22:11;;;;;;;0.68;0.52;;;22.90;59.50;;;;;;4941293;28;20118;-47
2022/07/29 05:24:37;;;;;;;2.30;0.40;;;22.70;59.40;;;;;;4258003;28;10022176;-45
2022/07/29 05:27:02;;;;;;;1.05;0.60;;;22.50;59.50;;;;;;4934918;28;20055;-50
2022/07/29 05:29:28;;;;;;;0.57;0.47;;;22.40;59.60;;;;;;4936039;28;20051;-49
2022/07/29 05:31:53;;;;;;;0.75;0.50;;;22.30;59.80;;;;;;4935360;28;20452;-47
2022/07/29 05:34:19;;;;;;;0.80;0.50;;;22.30;59.80;;;;;;4934686;28;20050;-47
2022/07/29 05:36:45;;;;;;;1.88;0.70;;;22.30;59.90;;;;;;4933713;28;20032;-53
2022/07/29 05:39:12;;;;;;;1.23;0.50;;;22.30;59.90;;;;;;4936684;28;20795;-52
2022/07/29 05:41:38;;;;;;;1.38;0.50;;;22.30;60.00;;;;;;4938386;28;20561;-47
2022/07/29 05:44:03;;;;;;;1.35;0.60;;;22.20;60.20;;;;;;4933555;28;20054;-50
2022/07/29 05:46:29;;;;;;;0.77;0.60;;;22.20;60.20;;;;;;4942454;28;20028;-45
2022/07/29 05:48:55;;;;;;;1.48;0.77;;;22.20;60.40;;;;;;4931582;28;20129;-50
2022/07/29 05:51:20;;;;;;;0.70;0.52;;;22.10;60.20;;;;;;4935161;28;20047;-45
2022/07/29 05:53:46;;;;;;;1.27;0.43;;;22.20;60.30;;;;;;4932581;28;20066;-45
2022/07/29 05:56:11;;;;;;;0.68;0.50;;;22.10;60.20;;;;;;4934429;28;20682;-51
2022/07/29 05:58:37;;;;;;;0.85;0.57;;;22.10;60.10;;;;;;4931049;28;20138;-47
2022/07/29 06:01:03;;;;;;;1.33;0.63;;;22.10;60.30;;;;;;4936633;28;20088;-45
2022/07/29 06:03:28;;;;;;;1.50;0.60;;;22.10;60.40;;;;;;4937109;28;20047;-46
2022/07/29 06:05:54;;;;;;;1.88;0.30;;;22.10;60.50;;;;;;4934007;28;20051;-49
2022/07/29 06:08:19;;;;;;;0.70;0.70;;;22.10;60.50;;;;;;4935111;28;20645;-46
2022/07/29 06:10:45;;;;;;;1.75;0.75;;;22.10;60.50;;;;;;4937447;28;20051;-46
2022/07/29 06:13:11;;;;;;;0.57;0.50;;;22.10;60.60;;;;;;4930107;28;20051;-46
2022/07/29 06:15:37;;;;;;;1.80;0.70;;;22.10;60.70;;;;;;4934707;28;20044;-48
2022/07/29 06:18:03;;;;;;;1.17;0.80;;;22.00;60.80;;;;;;4934078;28;20039;-47
2022/07/29 06:20:32;;;;;;;0.52;0.52;;;22.00;60.70;;;;;;4929934;28;20079;-46
2022/07/29 06:22:58;;;;;;;1.02;0.55;;;22.00;60.60;;;;;;4939789;28;21197;-48
2022/07/29 06:25:23;;;;;;;1.23;1.00;;;22.00;60.70;;;;;;4931513;28;20063;-45
2022/07/29 06:27:49;;;;;;;1.67;0.98;;;22.00;60.70;;;;;;4929841;28;20055;-51
2022/07/29 06:30:14;;;;;;;3.40;0.60;;;22.00;60.70;;;;;;4935146;28;20137;-50
2022/07/29 06:32:40;;;;;;;1.20;0.60;;;22.00;60.70;;;;;;4936467;28;20044;-45
2022/07/29 06:35:06;;;;;;;3.17;0.70;;;22.00;60.80;;;;;;4938226;28;20091;-49
2022/07/29 06:37:32;;;;;;;0.82;0.80;;;22.10;60.90;;;;;;4937173;28;20134;-50
2022/07/29 06:42:42;;;;;;;;;;;22.00;61.20;;;;;;4936348;28;20114;-49
2022/07/29 06:45:08;;;;;;;0.40;0.40;;;22.00;61.00;;;;;;4936095;28;19936;-48
2022/07/29 06:47:33;;;;;;;1.20;0.90;;;22.00;61.20;;;;;;4935750;28;20510;-32
2022/07/29 06:49:59;;;;;;;1.65;0.60;;;22.00;60.90;;;;;;4935578;28;20085;-46
2022/07/29 06:52:25;;;;;;;1.88;0.40;;;22.00;60.90;;;;;;4940348;28;20629;-47
2022/07/29 06:54:51;;;;;;;0.50;0.50;;;22.10;60.90;;;;;;4940414;28;20047;-46
2022/07/29 06:57:16;;;;;;;1.98;0.43;;;22.00;60.80;;;;;;4940907;28;20862;-41
2022/07/29 06:59:42;;;;;;;1.20;0.57;;;22.00;60.90;;;;;;4938435;28;20122;-46
2022/07/29 07:02:07;;;;;;;1.90;0.70;;;22.10;60.60;;;;;;4938989;28;20044;-48
2022/07/29 07:04:33;;;;;;;0.70;0.70;;;22.10;60.70;;;;;;4939164;28;20525;-46
2022/07/29 07:06:59;;;;;;;0.85;0.60;;;22.20;60.50;;;;;;4941396;28;20067;-45
2022/07/29 07:09:25;;;;;;;1.10;0.82;;;22.20;60.60;;;;;;4940455;28;20474;-48
2022/07/29 07:11:50;;;;;;;0.38;0.38;;;22.20;60.40;;;;;;4944187;28;20045;-46
2022/07/29 07:14:16;;;;;;;2.05;0.50;;;22.20;60.30;;;;;;4945219;28;20039;-44
2022/07/29 07:16:41;;;;;;;2.33;0.47;;;22.20;60.50;;;;;;4937015;28;20042;-44
2022/07/29 07:19:07;;;;;;;0.80;0.70;;;22.20;60.30;;;;;;4940694;28;20054;-48
2022/07/29 07:21:32;;;;;;;0.70;0.47;;;22.20;60.30;;;;;;4936683;28;20043;-45
2022/07/29 07:23:59;;;;;;;0.40;0.40;;;22.30;60.30;;;;;;4937374;28;20143;-45
2022/07/29 07:26:25;;;;;;;1.27;0.50;;;22.30;59.90;;;;;;4940579;28;20044;-45
2022/07/29 07:28:50;;;;;;;0.50;0.50;;;22.40;59.80;;;;;;4944437;28;20070;-44
2022/07/29 07:31:16;;;;;;;0.38;0.38;;;22.40;59.60;;;;;;4943916;28;20065;-45
2022/07/29 07:33:41;;;;;;;0.50;0.40;;;22.40;59.60;;;;;;4940443;28;20114;-45
2022/07/29 07:36:07;;;;;;;1.00;0.52;;;22.40;59.50;;;;;;4944496;28;20043;-47
2022/07/29 07:38:32;;;;;;;0.40;0.40;;;22.40;59.50;;;;;;4938195;28;20071;-44
2022/07/29 07:40:58;;;;;;;0.52;0.45;;;22.40;59.50;;;;;;4948446;28;20141;-46
2022/07/29 07:43:24;;;;;;;0.30;0.30;;;22.40;59.50;;;;;;4940884;28;20559;-48
2022/07/29 07:45:49;;;;;;;0.52;0.50;;;22.40;59.50;;;;;;4943576;28;20142;-46
2022/07/29 07:48:15;;;;;;;0.40;0.40;;;22.40;59.40;;;;;;4942006;28;20039;-50
2022/07/29 07:50:40;;;;;;;0.50;0.50;;;22.50;59.40;;;;;;4942830;28;20517;-47
2022/07/29 07:53:06;;;;;;;3.50;0.85;;;22.40;59.40;;;;;;4938381;28;20035;-46
2022/07/29 07:55:31;;;;;;;0.40;0.40;;;22.40;59.40;;;;;;4953630;28;20058;-48
2022/07/29 07:57:57;;;;;;;0.35;0.30;;;22.50;59.50;;;;;;4943514;28;20043;-44
2022/07/29 08:00:23;;;;;;;0.65;0.50;;;22.40;59.40;;;;;;4949527;28;20521;-47
2022/07/29 08:02:49;;;;;;;0.55;0.55;;;22.50;59.40;;;;;;4943532;28;20046;-46
2022/07/29 08:05:18;;;;;;;0.60;0.40;;;22.40;59.40;;;;;;4946952;28;20093;-45
2022/07/29 08:07:47;;;;;;;0.32;0.32;;;22.50;59.50;;;;;;4942439;28;20452;-45
2022/07/29 08:10:14;;;;;;;0.30;0.30;;;22.50;59.40;;;;;;4945729;28;20047;-20
2022/07/29 08:12:39;;;;;;;0.32;0.32;;;22.40;59.40;;;;;;4921665;28;20387;-21
2022/07/29 08:15:07;;;;;;;1.67;0.55;;;22.50;59.40;;;;;;4948385;28;20043;-25
2022/07/29 08:17:33;;;;;;;0.40;0.40;;;22.50;59.30;;;;;;4940380;28;20067;-20
2022/07/29 08:19:58;;;;;;;0.50;0.47;;;22.50;59.30;;;;;;4944687;28;20461;-21
2022/07/29 08:22:24;;;;;;;1.40;0.38;;;22.50;59.30;;;;;;4942076;28;20046;-20
2022/07/29 08:24:55;;;;;;;0.55;0.43;;;22.50;59.30;;;;;;4934785;28;20047;-20
2022/07/29 08:27:20;;;;;;;0.40;0.32;;;22.50;59.30;;;;;;4937667;28;20051;-20
2022/07/29 08:29:46;;;;;;;0.70;0.70;;;22.50;59.30;;;;;;4936684;28;20528;-20
2022/07/29 08:32:11;;;;;;;0.40;0.40;;;22.50;59.30;;;;;;4936280;28;20522;-20
2022/07/29 08:34:37;;;;;;;0.40;0.40;;;22.50;59.30;;;;;;4937234;28;20052;-20
2022/07/29 08:37:02;;;;;;;0.30;0.30;;;22.50;59.30;;;;;;4939253;28;20059;-20
2022/07/29 08:39:28;;;;;;;0.90;0.30;;;22.50;59.20;;;;;;4935190;28;20051;-19
2022/07/29 08:41:54;;;;;;;0.30;0.30;;;22.50;59.20;;;;;;4940262;28;20051;-20
2022/07/29 08:44:21;;;;;;;1.13;0.50;;;22.50;59.10;;;;;;4942471;28;20120;-20
2022/07/29 08:46:47;;;;;;;0.40;0.40;;;22.50;59.20;;;;;;4933639;28;20036;-19
2022/07/29 08:49:13;;;;;;;0.68;0.40;;;22.50;59.20;;;;;;4941551;28;20089;-20
2022/07/29 08:51:41;;;;;;;0.32;0.32;;;22.50;59.20;;;;;;4938277;28;20047;-20
2022/07/29 08:54:08;;;;;;;0.85;0.40;;;22.50;59.30;;;;;;4944834;29;20050;-21
2022/07/29 08:56:34;;;;;;;0.40;0.40;;;22.50;59.20;;;;;;4941427;28;20506;-19
2022/07/29 08:58:59;;;;;;;0.40;0.40;;;22.50;59.10;;;;;;4945394;28;20138;-20
2022/07/29 09:01:27;;;;;;;0.70;0.50;;;22.50;59.20;;;;;;5026346;28;20054;-20
2022/07/29 09:03:55;;;;;;;0.50;0.38;;;22.50;59.20;;;;;;4942729;28;20043;-20
2022/07/29 09:06:21;;;;;;;0.40;0.40;;;22.50;59.20;;;;;;4937846;28;20040;-20
2022/07/29 09:08:47;;;;;;;0.35;0.35;;;22.50;59.10;;;;;;4946187;28;20034;-20
2022/07/29 09:11:13;;;;;;;0.40;0.40;;;22.60;59.20;;;;;;4939905;28;20105;-20
2022/07/29 09:13:39;;;;;;;0.47;0.32;;;22.60;59.20;;;;;;4943815;28;20045;-20
2022/07/29 09:16:05;;;;;;;0.52;0.40;;;22.60;59.20;;;;;;4944246;28;20047;-20
2022/07/29 09:18:36;;;;;;;0.40;0.30;;;22.50;59.10;;;;;;4942540;28;20441;-19
2022/07/29 09:24:09;;;;;;;0.63;0.50;;;22.60;59.10;;;;;;4941981;28;20587;-20
2022/07/29 09:26:36;;;;;;;0.30;0.30;;;22.60;59.10;;;;;;4943256;28;20043;-20
2022/07/29 09:29:08;;;;;;;0.95;0.40;;;22.60;59.10;;;;;;4939891;28;20040;-20
2022/07/29 09:31:35;;;;;;;0.47;0.47;;;22.60;59.10;;;;;;4939895;28;20108;-21
2022/07/29 09:34:02;;;;;;;0.30;0.30;;;22.60;59.10;;;;;;4936378;29;20577;-21
2022/07/29 09:36:27;;;;;;;0.40;0.40;;;22.60;59.70;;;;;;4936619;28;20047;-20
2022/07/29 09:39:00;;;;;;;0.32;0.32;;;22.60;59.00;;;;;;4941181;28;20043;-19
2022/07/29 09:41:26;;;;;;;0.43;0.32;;;22.60;59.00;;;;;;4948479;28;20046;-20
2022/07/29 09:43:56;;;;;;;0.30;0.30;;;22.60;59.10;;;;;;4944778;28;20106;-20
2022/07/29 09:46:22;;;;;;;0.40;0.22;;;22.60;59.00;;;;;;4939569;28;20059;-19
2022/07/29 09:49:12;;;;;;;0.40;0.40;;;22.60;59.00;;;;;;4938128;28;20084;-19
2022/07/29 09:51:38;;;;;;;0.35;0.35;;;22.60;59.00;;;;;;4939701;28;20130;-21
2022/07/29 09:54:27;;;;;;;0.50;0.50;;;22.60;59.00;;;;;;4938864;28;20134;-21
2022/07/29 09:56:53;;;;;;;0.43;0.43;;;22.60;59.00;;;;;;4940016;28;20097;-20
2022/07/29 09:59:20;;;;;;;0.70;0.40;;;22.60;58.90;;;;;;4937549;28;20039;-19
2022/07/29 10:01:46;;;;;;;0.30;0.30;;;22.70;59.50;;;;;;4935047;28;20057;-20
2022/07/29 10:04:12;;;;;;;0.50;0.50;;;22.60;58.90;;;;;;4940427;28;20043;-19
2022/07/29 10:06:56;;;;;;;0.45;0.43;;;22.70;59.10;;;;;;4939402;28;20053;-19
2022/07/29 10:09:21;;;;;;;0.45;0.40;;;22.70;59.10;;;;;;4948306;28;20040;-19
2022/07/29 10:12:06;;;;;;;0.30;0.30;;;22.70;59.10;;;;;;4934831;28;20433;-20
2022/07/29 10:14:35;;;;;;;0.30;0.30;;;22.70;59.10;;;;;;4938787;28;20082;-19
2022/07/29 10:17:01;;;;;;;1.42;0.30;;;22.70;59.30;;;;;;4935976;28;20460;-19
2022/07/29 10:19:29;;;;;;;0.40;0.40;;;22.70;59.30;;;;;;4937387;28;20035;-21
2022/07/29 10:21:55;;;;;;;0.40;0.30;;;22.70;59.40;;;;;;4941258;28;20506;-20
2022/07/29 10:24:21;;;;;;;0.50;0.30;;;22.70;59.30;;;;;;4933393;28;20051;-19
2022/07/29 10:26:47;;;;;;;0.30;0.30;;;22.70;59.00;;;;;;4943531;28;20039;-19
2022/07/29 10:29:13;;;;;;;0.30;0.30;;;22.70;59.30;;;;;;4938989;29;20430;-19
2022/07/29 10:31:58;;;;;;;0.20;0.20;;;22.70;59.30;;;;;;4939168;28;20050;-19
2022/07/29 10:35:03;;;;;;;0.63;0.32;;;22.70;59.20;;;;;;4934244;28;20051;-19
2022/07/29 10:38:08;;;;;;;0.40;0.27;;;22.70;59.20;;;;;;4938058;28;20494;-19
2022/07/29 10:43:19;;;;;;;0.10;0.10;;;22.70;59.10;;;;;;4941416;28;20297;-20
2022/07/29 10:45:48;;;;;;;0.30;0.30;;;22.70;59.20;;;;;;4925119;29;20028;-20
2022/07/29 10:48:14;;;;;;;0.40;0.40;;;22.70;59.10;;;;;;4954156;28;20056;-20
2022/07/29 10:51:00;;;;;;;0.20;0.20;;;22.70;59.10;;;;;;4941316;28;20043;-19
2022/07/29 10:53:46;;;;;;;0.20;0.20;;;22.70;59.00;;;;;;4944999;28;20054;-19
2022/07/29 10:56:28;;;;;;;1.45;0.50;;;22.70;59.10;;;;;;4937602;28;20059;-20
2022/07/29 10:59:23;;;;;;;0.40;0.30;;;22.80;59.20;;;;;;4938843;28;20159;-20
2022/07/29 11:01:50;;;;;;;0.28;0.28;;;22.70;59.10;;;;;;4935954;28;20043;-18
2022/07/29 11:04:16;;;;;;;0.30;0.30;;;22.80;59.70;;;;;;4938107;28;20054;-20
2022/07/29 11:07:01;;;;;;;0.30;0.30;;;22.80;59.10;;;;;;4938990;28;20589;-20
2022/07/29 11:09:29;;;;;;;0.22;0.22;;;22.70;59.10;;;;;;4938933;28;20514;-19
2022/07/29 11:11:55;;;;;;;0.40;0.40;;;22.80;59.10;;;;;;4941344;28;20039;-20
2022/07/29 11:14:51;;;;;;;0.25;0.20;;;22.80;59.00;;;;;;4942494;28;20093;-20
2022/07/29 11:17:17;;;;;;;0.30;0.20;;;22.80;59.00;;;;;;4939894;28;20302;-22
2022/07/29 11:19:43;;;;;;;0.25;0.25;;;22.80;59.10;;;;;;4940290;28;20050;-20
2022/07/29 11:22:09;;;;;;;0.28;0.28;;;22.80;59.00;;;;;;4941754;28;20055;-19
2022/07/29 11:24:35;;;;;;;0.32;0.30;;;22.80;59.10;;;;;;4945996;28;20067;-19
2022/07/29 11:27:15;;;;;;;0.50;0.50;;;22.80;59.10;;;;;;4941896;28;20476;-19
2022/07/29 11:29:49;;;;;;;0.65;0.25;;;22.80;59.10;;;;;;4938245;28;20278;-20
2022/07/29 11:32:15;;;;;;;0.22;0.22;;;22.80;59.10;;;;;;4940653;28;20054;-20
2022/07/29 11:34:41;;;;;;;0.40;0.40;;;22.80;59.80;;;;;;4942881;28;20050;-19
2022/07/29 11:37:07;;;;;;;0.40;0.40;;;22.80;59.10;;;;;;4926240;28;20048;-20
2022/07/29 11:39:33;;;;;;;0.30;0.30;;;22.80;59.20;;;;;;4941323;28;20043;-19
2022/07/29 11:42:24;;;;;;;0.40;0.40;;;22.90;59.20;;;;;;4943395;28;20034;-19
2022/07/29 11:44:58;;;;;;;0.40;0.40;;;22.90;59.70;;;;;;4937096;28;20094;-21
2022/07/29 11:47:25;;;;;;;0.38;0.30;;;22.90;59.60;;;;;;4935759;29;20035;-20
2022/07/29 11:49:51;;;;;;;2.85;0.30;;;22.90;59.50;;;;;;4937159;28;20120;-20
2022/07/29 11:52:17;;;;;;;1.30;0.57;;;22.90;59.50;;;;;;4937715;29;20434;-20
2022/07/29 11:54:43;;;;;;;1.33;0.50;;;22.90;59.80;;;;;;4940611;28;20047;-20
2022/07/29 11:57:08;;;;;;;0.85;0.40;;;22.90;60.10;;;;;;4940131;28;20047;-20
2022/07/29 11:59:41;;;;;;;1.38;0.60;;;22.90;60.20;;;;;;4937289;28;20044;-19
2022/07/29 12:02:07;;;;;;;0.75;0.50;;;22.90;60.30;;;;;;4938043;28;20125;-20
2022/07/29 12:04:33;;;;;;;2.10;0.45;;;22.90;60.20;;;;;;4939704;28;20075;-20
2022/07/29 12:06:59;;;;;;;2.40;0.40;;;23.00;60.40;;;;;;4940197;28;20082;-22
2022/07/29 12:09:24;;;;;;;1.42;0.45;;;22.90;60.50;;;;;;4937233;29;20109;-20
2022/07/29 12:11:56;;;;;;;3.45;0.52;;;22.90;60.30;;;;;;4937638;28;20525;-19
2022/07/29 12:14:31;;;;;;;0.77;0.50;;;22.90;60.30;;;;;;4939108;28;20047;-20
2022/07/29 12:16:57;;;;;;;2.78;0.60;;;23.00;60.30;;;;;;4939219;28;20071;-19
2022/07/29 12:19:23;;;;;;;1.20;0.38;;;23.00;60.30;;;;;;4939653;28;20047;-20
2022/07/29 12:21:50;;;;;;;1.00;0.40;;;23.00;60.20;;;;;;4937387;29;20606;-20
2022/07/29 12:24:15;;;;;;;1.08;0.30;;;23.00;60.10;;;;;;4937023;29;20059;-20
2022/07/29 12:26:50;;;;;;;1.83;0.68;;;23.00;60.10;;;;;;4939119;28;20498;-19
2022/07/29 12:29:17;;;;;;;0.95;0.40;;;23.00;60.10;;;;;;4940461;28;20117;-19
2022/07/29 12:31:43;;;;;;;0.95;0.30;;;23.00;60.00;;;;;;4939130;28;20044;-24
2022/07/29 12:34:09;;;;;;;0.70;0.57;;;23.10;60.00;;;;;;4939992;28;20062;-21
2022/07/29 12:36:35;;;;;;;0.68;0.60;;;23.00;59.90;;;;;;4938705;28;20044;-20
2022/07/29 12:39:01;;;;;;;0.50;0.43;;;23.00;59.90;;;;;;4941596;28;20605;-20
2022/07/29 12:41:28;;;;;;;0.55;0.47;;;23.00;60.70;;;;;;4939064;28;20553;-19
2022/07/29 12:43:54;;;;;;;1.55;0.30;;;23.10;59.90;;;;;;4939577;28;20047;-20
2022/07/29 12:46:20;;;;;;;0.45;0.45;;;23.10;59.90;;;;;;4941872;28;20051;-19
2022/07/29 12:48:50;;;;;;;0.52;0.40;;;23.00;59.90;;;;;;4943140;28;20409;-20
2022/07/29 12:51:16;;;;;;;0.57;0.32;;;23.10;59.90;;;;;;4940970;28;20683;-20
2022/07/29 12:53:51;;;;;;;1.27;0.57;;;23.10;59.90;;;;;;4937316;28;20052;-19
2022/07/29 12:56:17;;;;;;;2.95;0.40;;;23.10;59.80;;;;;;4940948;28;20058;-20
2022/07/29 12:58:44;;;;;;;0.30;0.30;;;23.10;59.90;;;;;;4942367;28;20039;-20
2022/07/29 13:01:19;;;;;;;0.68;0.40;;;23.10;59.80;;;;;;4940122;28;20114;-20
2022/07/29 13:03:48;;;;;;;0.45;0.38;;;23.10;59.80;;;;;;4942497;28;20042;-19
2022/07/29 13:06:44;;;;;;;0.30;0.30;;;23.10;59.90;;;;;;4939455;28;20039;-19